Time;durP1;ratioP1;P1;durP2;ratioP2;P2;SDS_P1;SDS_P2;PMS_P1;PMS_P2;Temp;Humidity;BMP_temperature;BMP_pressure;BME280_temperature;BME280_humidity;BME280_pressure;Samples;Min_cycle;Max_cycle;Signal;HPM_P1;HPM_P2
2023/10/14 00:00:27;;;;;;;11.03;4.03;;;;;;;;;;515918;28;1160;-76
2023/10/14 00:00:48;;;;;;;12.18;4.40;;;;;;;;;;515002;28;1394;-76
2023/10/14 00:01:11;;;;;;;11.13;4.00;;;;;;;;;;513706;28;1352;-76
2023/10/14 00:01:28;;;;;;;13.30;4.22;;;;;;;;;;511761;28;1415;-76
2023/10/14 00:01:45;;;;;;;11.80;4.15;;;;;;;;;;513904;28;1482;-76
2023/10/14 00:02:21;;;;;;;9.93;4.00;;;;;;;;;;513756;28;1367;-76
2023/10/14 00:02:37;;;;;;;9.00;3.97;;;;;;;;;;513926;28;915;-76
2023/10/14 00:02:53;;;;;;;9.85;3.97;;;;;;;;;;513811;28;1323;-76
2023/10/14 00:03:33;;;;;;;10.00;4.00;;;;;;;;;;514061;28;1264;-76
2023/10/14 00:03:45;;;;;;;12.45;4.20;;;;;;;;;;515388;28;1209;-77
2023/10/14 00:04:04;;;;;;;13.52;4.13;;;;;;;;;;517753;28;952;-76
2023/10/14 00:04:21;;;;;;;11.02;4.20;;;;;;;;;;518022;28;925;-76
2023/10/14 00:04:37;;;;;;;10.82;4.32;;;;;;;;;;518069;28;842;-76
2023/10/14 00:04:53;;;;;;;12.00;4.43;;;;;;;;;;519906;28;949;-76
2023/10/14 00:05:08;;;;;;;12.83;4.30;;;;;;;;;;520063;28;1212;-76
2023/10/14 00:05:24;;;;;;;14.38;4.10;;;;;;;;;;518909;28;1811;-76
2023/10/14 00:05:39;;;;;;;12.43;4.50;;;;;;;;;;519548;28;1186;-76
2023/10/14 00:05:55;;;;;;;12.20;4.70;;;;;;;;;;517503;28;1196;-76
2023/10/14 00:06:12;;;;;;;11.07;4.30;;;;;;;;;;517826;28;1211;-76
2023/10/14 00:06:27;;;;;;;11.80;4.00;;;;;;;;;;518113;28;862;-76
2023/10/14 00:06:42;;;;;;;12.70;4.20;;;;;;;;;;517890;28;1556;-76
2023/10/14 00:06:59;;;;;;;10.03;4.20;;;;;;;;;;517905;28;1204;-76
2023/10/14 00:07:17;;;;;;;10.00;4.00;;;;;;;;;;517952;28;1279;-76
2023/10/14 00:07:33;;;;;;;14.25;4.35;;;;;;;;;;517939;28;882;-76
2023/10/14 00:07:52;;;;;;;14.00;4.40;;;;;;;;;;517599;28;1097;-76
2023/10/14 00:08:08;;;;;;;11.60;4.00;;;;;;;;;;517992;28;1466;-76
2023/10/14 00:08:31;;;;;;;10.07;4.03;;;;;;;;;;517668;28;1731;-76
2023/10/14 00:08:58;;;;;;;12.05;4.20;;;;;;;;;;517400;28;1532;-77
2023/10/14 00:09:14;;;;;;;10.27;4.20;;;;;;;;;;516042;28;926;-76
2023/10/14 00:09:33;;;;;;;10.63;4.20;;;;;;;;;;516009;28;1340;-76
2023/10/14 00:09:49;;;;;;;9.57;4.30;;;;;;;;;;515599;28;1073;-76
2023/10/14 00:10:06;;;;;;;9.95;4.18;;;;;;;;;;515923;28;1430;-76
2023/10/14 00:10:22;;;;;;;11.90;4.00;;;;;;;;;;519033;28;1562;-76
2023/10/14 00:10:39;;;;;;;14.05;4.15;;;;;;;;;;519944;28;1238;-76
2023/10/14 00:10:54;;;;;;;13.20;4.10;;;;;;;;;;517671;28;1323;-76
2023/10/14 00:11:09;;;;;;;9.73;3.93;;;;;;;;;;515545;28;1197;-76
2023/10/14 00:11:33;;;;;;;9.93;3.90;;;;;;;;;;513987;28;1354;-76
2023/10/14 00:11:54;;;;;;;10.63;4.10;;;;;;;;;;513243;28;1295;-76
2023/10/14 00:12:14;;;;;;;12.55;4.30;;;;;;;;;;513696;28;942;-76
2023/10/14 00:12:29;;;;;;;12.82;4.35;;;;;;;;;;511959;29;1573;-76
2023/10/14 00:12:52;;;;;;;11.67;4.40;;;;;;;;;;511070;28;1226;-76
2023/10/14 00:13:10;;;;;;;13.43;4.25;;;;;;;;;;511597;29;990;-76
2023/10/14 00:13:30;;;;;;;13.65;4.50;;;;;;;;;;513612;28;1506;-76
2023/10/14 00:13:49;;;;;;;12.80;4.30;;;;;;;;;;516283;28;1817;-76
2023/10/14 00:14:14;;;;;;;13.00;4.20;;;;;;;;;;514754;28;2138;-77
2023/10/14 00:14:31;;;;;;;12.65;4.03;;;;;;;;;;513940;28;1303;-76
2023/10/14 00:14:48;;;;;;;9.30;3.72;;;;;;;;;;516732;28;1038;-76
2023/10/14 00:15:05;;;;;;;10.85;4.20;;;;;;;;;;517980;28;874;-76
2023/10/14 00:15:20;;;;;;;11.48;4.25;;;;;;;;;;516697;28;1413;-77
2023/10/14 00:15:39;;;;;;;11.77;4.27;;;;;;;;;;515846;28;1315;-76
2023/10/14 00:15:55;;;;;;;11.40;4.18;;;;;;;;;;513091;28;1303;-76
2023/10/14 00:16:29;;;;;;;14.60;4.28;;;;;;;;;;513807;28;1231;-76
2023/10/14 00:16:49;;;;;;;8.77;3.83;;;;;;;;;;515880;28;1054;-76
2023/10/14 00:17:11;;;;;;;7.78;3.70;;;;;;;;;;513969;28;1447;-77
2023/10/14 00:17:34;;;;;;;7.93;3.78;;;;;;;;;;515978;28;878;-76
2023/10/14 00:17:50;;;;;;;11.15;4.10;;;;;;;;;;515838;28;1416;-76
2023/10/14 00:18:08;;;;;;;11.43;4.20;;;;;;;;;;515326;28;1432;-76
2023/10/14 00:18:24;;;;;;;14.25;4.07;;;;;;;;;;515340;28;1607;-76
2023/10/14 00:18:47;;;;;;;14.13;3.93;;;;;;;;;;516992;28;1006;-76
2023/10/14 00:19:04;;;;;;;11.65;3.92;;;;;;;;;;519732;28;934;-76
2023/10/14 00:19:22;;;;;;;11.15;3.83;;;;;;;;;;519993;28;894;-76
2023/10/14 00:19:37;;;;;;;12.73;3.90;;;;;;;;;;520068;28;854;-76
2023/10/14 00:19:55;;;;;;;12.98;4.13;;;;;;;;;;519606;28;1351;-76
2023/10/14 00:20:10;;;;;;;9.43;3.90;;;;;;;;;;518236;28;1387;-76
2023/10/14 00:20:26;;;;;;;11.27;4.18;;;;;;;;;;518254;28;910;-76
2023/10/14 00:20:42;;;;;;;14.20;4.27;;;;;;;;;;515801;28;1156;-77
2023/10/14 00:20:57;;;;;;;12.50;3.95;;;;;;;;;;515533;28;938;-76
2023/10/14 00:21:13;;;;;;;9.27;3.70;;;;;;;;;;513894;28;1189;-76
2023/10/14 00:21:29;;;;;;;8.98;3.67;;;;;;;;;;513897;28;1365;-76
2023/10/14 00:21:46;;;;;;;9.00;3.93;;;;;;;;;;511848;28;1300;-76
2023/10/14 00:22:04;;;;;;;10.13;4.00;;;;;;;;;;512593;28;906;-77
2023/10/14 00:22:20;;;;;;;10.57;3.70;;;;;;;;;;513572;28;1367;-77
2023/10/14 00:22:39;;;;;;;10.23;3.65;;;;;;;;;;514008;28;807;-76
2023/10/14 00:22:54;;;;;;;11.30;3.50;;;;;;;;;;515925;28;1216;-76
2023/10/14 00:23:11;;;;;;;10.38;3.50;;;;;;;;;;515842;28;1212;-76
2023/10/14 00:23:26;;;;;;;10.88;3.90;;;;;;;;;;517029;28;1698;-76
2023/10/14 00:23:42;;;;;;;10.75;4.13;;;;;;;;;;515574;28;1181;-77
2023/10/14 00:23:57;;;;;;;10.97;3.90;;;;;;;;;;515883;28;1168;-76
2023/10/14 00:24:25;;;;;;;10.53;3.73;;;;;;;;;;515053;28;1613;-76
2023/10/14 00:24:40;;;;;;;14.65;3.97;;;;;;;;;;516376;28;1484;-76
2023/10/14 00:24:58;;;;;;;11.77;3.70;;;;;;;;;;515451;28;1574;-76
2023/10/14 00:25:23;;;;;;;9.77;3.55;;;;;;;;;;514913;28;1841;-76
2023/10/14 00:25:39;;;;;;;10.05;3.60;;;;;;;;;;515150;28;974;-76
2023/10/14 00:25:54;;;;;;;10.38;3.70;;;;;;;;;;518985;28;1342;-75
2023/10/14 00:26:16;;;;;;;10.95;3.90;;;;;;;;;;517458;28;1449;-76
2023/10/14 00:26:33;;;;;;;11.57;3.90;;;;;;;;;;517582;28;898;-76
2023/10/14 00:26:48;;;;;;;12.43;4.00;;;;;;;;;;515876;28;1271;-76
2023/10/14 00:27:07;;;;;;;10.23;3.80;;;;;;;;;;516044;28;838;-77
2023/10/14 00:27:23;;;;;;;9.75;3.65;;;;;;;;;;515918;28;1280;-76
2023/10/14 00:27:39;;;;;;;10.85;3.72;;;;;;;;;;515973;28;906;-77
2023/10/14 00:27:54;;;;;;;12.37;3.80;;;;;;;;;;515873;28;1200;-76
2023/10/14 00:28:19;;;;;;;12.97;3.93;;;;;;;;;;517800;28;831;-77
2023/10/14 00:28:35;;;;;;;8.10;3.63;;;;;;;;;;517993;28;909;-76
2023/10/14 00:28:54;;;;;;;8.82;3.70;;;;;;;;;;518178;28;1139;-76
2023/10/14 00:29:31;;;;;;;11.52;3.65;;;;;;;;;;515094;28;776;-77
2023/10/14 00:29:47;;;;;;;15.68;4.00;;;;;;;;;;515323;28;1255;-76
2023/10/14 00:30:11;;;;;;;16.58;4.00;;;;;;;;;;517777;28;1455;-76
2023/10/14 00:30:31;;;;;;;9.48;3.40;;;;;;;;;;516409;28;1064;-77
2023/10/14 00:30:47;;;;;;;10.73;3.58;;;;;;;;;;516683;28;1113;-76
2023/10/14 00:31:02;;;;;;;9.65;3.70;;;;;;;;;;517410;28;1361;-76
2023/10/14 00:31:18;;;;;;;9.73;3.57;;;;;;;;;;518065;28;1119;-76
2023/10/14 00:31:34;;;;;;;10.48;3.67;;;;;;;;;;518125;28;827;-76
2023/10/14 00:31:51;;;;;;;10.17;3.67;;;;;;;;;;520029;28;1068;-76
2023/10/14 00:32:06;;;;;;;10.35;3.60;;;;;;;;;;517487;28;1721;-76
2023/10/14 00:32:22;;;;;;;10.13;3.70;;;;;;;;;;516042;28;1208;-76
2023/10/14 00:32:38;;;;;;;10.10;3.50;;;;;;;;;;515811;28;858;-76
2023/10/14 00:32:54;;;;;;;12.13;3.50;;;;;;;;;;513760;28;1930;-76
2023/10/14 00:33:12;;;;;;;12.33;3.70;;;;;;;;;;513974;28;980;-76
2023/10/14 00:33:27;;;;;;;10.38;3.47;;;;;;;;;;513728;28;926;-76
2023/10/14 00:33:45;;;;;;;10.38;3.58;;;;;;;;;;513889;28;1441;-76
2023/10/14 00:34:01;;;;;;;12.30;3.38;;;;;;;;;;515953;28;863;-77
2023/10/14 00:34:21;;;;;;;12.80;3.23;;;;;;;;;;516411;28;1285;-76
2023/10/14 00:34:36;;;;;;;10.75;3.33;;;;;;;;;;517688;28;1302;-76
2023/10/14 00:34:52;;;;;;;10.07;3.57;;;;;;;;;;516744;28;1212;-77
2023/10/14 00:35:09;;;;;;;10.03;3.60;;;;;;;;;;517869;28;1253;-76
2023/10/14 00:35:26;;;;;;;10.02;3.38;;;;;;;;;;517947;28;1434;-77
2023/10/14 00:35:43;;;;;;;10.68;3.47;;;;;;;;;;515338;28;1335;-76
2023/10/14 00:35:59;;;;;;;10.50;3.38;;;;;;;;;;515153;28;1323;-76
2023/10/14 00:36:16;;;;;;;10.52;3.50;;;;;;;;;;516023;28;903;-76
2023/10/14 00:36:31;;;;;;;10.43;3.55;;;;;;;;;;515479;28;1301;-76
2023/10/14 00:36:47;;;;;;;9.93;3.25;;;;;;;;;;514740;28;1763;-75
2023/10/14 00:37:02;;;;;;;9.90;3.30;;;;;;;;;;511113;28;1299;-76
2023/10/14 00:37:18;;;;;;;8.95;3.35;;;;;;;;;;512597;28;1317;-76
2023/10/14 00:37:34;;;;;;;9.40;3.37;;;;;;;;;;514451;28;1015;-76
2023/10/14 00:37:52;;;;;;;8.65;3.30;;;;;;;;;;516505;28;1058;-76
2023/10/14 00:38:14;;;;;;;10.23;3.50;;;;;;;;;;517853;28;1329;-77
2023/10/14 00:38:34;;;;;;;12.75;3.55;;;;;;;;;;517980;28;929;-76
2023/10/14 00:38:58;;;;;;;11.30;3.58;;;;;;;;;;517655;28;1081;-76
2023/10/14 00:39:16;;;;;;;9.00;3.30;;;;;;;;;;519772;28;1217;-76
2023/10/14 00:39:32;;;;;;;9.07;3.17;;;;;;;;;;519216;28;1591;-76
2023/10/14 00:40:00;;;;;;;10.27;3.20;;;;;;;;;;518734;28;1661;-76
2023/10/14 00:40:22;;;;;;;13.60;3.60;;;;;;;;;;517981;28;922;-76
2023/10/14 00:40:38;;;;;;;9.90;3.28;;;;;;;;;;518034;28;878;-76
2023/10/14 00:40:53;;;;;;;7.90;3.30;;;;;;;;;;519049;28;1248;-76
2023/10/14 00:41:09;;;;;;;11.83;3.40;;;;;;;;;;519789;28;894;-76
2023/10/14 00:41:28;;;;;;;14.90;3.50;;;;;;;;;;517907;28;1331;-76
2023/10/14 00:41:45;;;;;;;11.38;3.40;;;;;;;;;;515868;28;1460;-76
2023/10/14 00:42:00;;;;;;;7.88;3.40;;;;;;;;;;513827;28;1288;-76
2023/10/14 00:42:15;;;;;;;8.60;3.30;;;;;;;;;;514071;28;851;-76
2023/10/14 00:42:31;;;;;;;11.82;3.33;;;;;;;;;;513946;28;780;-76
2023/10/14 00:42:46;;;;;;;12.73;3.50;;;;;;;;;;513868;28;1094;-76
2023/10/14 00:43:04;;;;;;;10.93;3.50;;;;;;;;;;513510;28;1304;-76
2023/10/14 00:43:20;;;;;;;9.77;3.50;;;;;;;;;;515122;28;922;-76
2023/10/14 00:43:36;;;;;;;8.80;3.47;;;;;;;;;;516788;28;863;-76
2023/10/14 00:43:52;;;;;;;9.25;3.25;;;;;;;;;;518536;28;1089;-76
2023/10/14 00:44:09;;;;;;;11.50;3.47;;;;;;;;;;519915;28;929;-76
2023/10/14 00:44:25;;;;;;;11.75;3.70;;;;;;;;;;517603;28;1262;-76
2023/10/14 00:44:41;;;;;;;9.23;3.60;;;;;;;;;;519411;28;1130;-76
2023/10/14 00:44:56;;;;;;;9.05;3.60;;;;;;;;;;518170;28;1121;-76
2023/10/14 00:45:12;;;;;;;9.87;3.60;;;;;;;;;;519773;28;929;-76
2023/10/14 00:45:27;;;;;;;7.82;3.35;;;;;;;;;;519175;28;1764;-76
2023/10/14 00:45:43;;;;;;;7.47;3.20;;;;;;;;;;517852;28;1260;-76
2023/10/14 00:45:59;;;;;;;9.95;3.58;;;;;;;;;;515277;28;1520;-76
2023/10/14 00:46:16;;;;;;;10.80;3.50;;;;;;;;;;516573;28;945;-76
2023/10/14 00:46:31;;;;;;;10.07;3.30;;;;;;;;;;518007;28;1324;-76
2023/10/14 00:46:50;;;;;;;10.23;3.50;;;;;;;;;;515785;28;1314;-76
2023/10/14 00:47:08;;;;;;;10.05;3.40;;;;;;;;;;513689;28;1350;-76
2023/10/14 00:47:25;;;;;;;10.77;3.40;;;;;;;;;;513727;28;914;-76
2023/10/14 00:47:40;;;;;;;11.07;3.55;;;;;;;;;;513687;28;1342;-76
2023/10/14 00:47:59;;;;;;;10.43;3.50;;;;;;;;;;513543;28;1311;-76
2023/10/14 00:48:19;;;;;;;8.27;3.50;;;;;;;;;;513815;28;863;-76
2023/10/14 00:48:34;;;;;;;11.15;3.80;;;;;;;;;;514043;28;1505;-76
2023/10/14 00:48:51;;;;;;;11.10;3.60;;;;;;;;;;515924;28;1121;-76
2023/10/14 00:49:10;;;;;;;11.10;3.60;;;;;;;;;;515806;28;863;-76
2023/10/14 00:49:31;;;;;;;9.25;3.50;;;;;;;;;;515738;28;874;-76
2023/10/14 00:49:48;;;;;;;8.13;3.17;;;;;;;;;;517744;28;1398;-76
2023/10/14 00:50:20;;;;;;;8.65;3.28;;;;;;;;;;517947;28;1259;-76
2023/10/14 00:50:36;;;;;;;6.50;3.05;;;;;;;;;;517058;28;1857;-76
2023/10/14 00:50:51;;;;;;;11.60;3.37;;;;;;;;;;516210;28;1300;-76
2023/10/14 00:51:13;;;;;;;12.23;3.60;;;;;;;;;;515480;28;1389;-76
2023/10/14 00:51:30;;;;;;;9.55;3.50;;;;;;;;;;517757;28;961;-76
2023/10/14 00:51:49;;;;;;;11.43;3.83;;;;;;;;;;516882;28;905;-76
2023/10/14 00:52:10;;;;;;;10.23;3.70;;;;;;;;;;515890;28;937;-76
2023/10/14 00:52:29;;;;;;;9.38;3.38;;;;;;;;;;514486;28;1478;-76
2023/10/14 00:52:53;;;;;;;9.10;3.50;;;;;;;;;;514268;28;910;-76
2023/10/14 00:53:09;;;;;;;10.23;3.55;;;;;;;;;;515730;28;1958;-76
2023/10/14 00:53:27;;;;;;;8.60;3.40;;;;;;;;;;517180;28;2057;-76
2023/10/14 00:53:52;;;;;;;9.95;3.63;;;;;;;;;;519282;28;1457;-76
2023/10/14 00:54:26;;;;;;;11.05;3.47;;;;;;;;;;517710;28;870;-76
2023/10/14 00:55:12;;;;;;;9.07;3.70;;;;;;;;;;518052;28;689;-75
2023/10/14 00:55:36;;;;;;;10.65;3.65;;;;;;;;;;517272;28;1809;-76
2023/10/14 00:55:54;;;;;;;11.23;3.72;;;;;;;;;;517712;28;1030;-76
2023/10/14 00:56:15;;;;;;;11.95;3.67;;;;;;;;;;516080;28;874;-76
2023/10/14 00:56:31;;;;;;;10.02;3.50;;;;;;;;;;514162;28;1255;-76
2023/10/14 00:56:47;;;;;;;8.60;3.45;;;;;;;;;;517911;28;1144;-76
2023/10/14 00:57:40;;;;;;;8.65;3.30;;;;;;;;;;517524;28;724;-76
2023/10/14 00:57:55;;;;;;;12.05;3.55;;;;;;;;;;516042;28;1515;-76
2023/10/14 00:58:13;;;;;;;10.97;3.73;;;;;;;;;;515778;28;1367;-76
2023/10/14 00:58:28;;;;;;;11.25;3.92;;;;;;;;;;517869;28;1140;-76
2023/10/14 00:58:49;;;;;;;9.60;3.60;;;;;;;;;;517338;28;1188;-76
2023/10/14 00:59:04;;;;;;;9.82;3.90;;;;;;;;;;514035;28;1303;-76
2023/10/14 00:59:20;;;;;;;11.47;3.80;;;;;;;;;;513750;28;800;-76
2023/10/14 00:59:37;;;;;;;12.43;3.50;;;;;;;;;;513851;28;1240;-76
2023/10/14 00:59:55;;;;;;;10.25;3.42;;;;;;;;;;513056;28;1339;-76
2023/10/14 01:00:11;;;;;;;9.90;3.50;;;;;;;;;;513756;28;860;-76
2023/10/14 01:00:45;;;;;;;8.98;3.47;;;;;;;;;;514107;28;836;-76
2023/10/14 01:01:01;;;;;;;11.18;3.80;;;;;;;;;;515268;28;954;-75
2023/10/14 01:01:17;;;;;;;9.38;3.63;;;;;;;;;;513724;28;1423;-76
2023/10/14 01:01:49;;;;;;;11.85;3.67;;;;;;;;;;513269;28;1383;-76
2023/10/14 01:02:09;;;;;;;10.75;3.60;;;;;;;;;;515971;28;945;-76
2023/10/14 01:02:31;;;;;;;9.15;3.78;;;;;;;;;;513876;28;1259;-76
2023/10/14 01:02:47;;;;;;;11.93;3.60;;;;;;;;;;513517;28;831;-77
2023/10/14 01:03:07;;;;;;;13.00;3.60;;;;;;;;;;515847;28;1404;-76
2023/10/14 01:03:26;;;;;;;10.35;3.67;;;;;;;;;;517278;28;1811;-76
2023/10/14 01:03:42;;;;;;;9.57;3.60;;;;;;;;;;516525;28;1022;-76
2023/10/14 01:04:32;;;;;;;8.50;3.50;;;;;;;;;;517561;28;1145;-76
2023/10/14 01:04:53;;;;;;;8.63;3.50;;;;;;;;;;515787;28;1188;-76
2023/10/14 01:05:18;;;;;;;8.95;3.60;;;;;;;;;;515978;28;964;-77
2023/10/14 01:05:35;;;;;;;11.75;3.80;;;;;;;;;;515826;28;1029;-76
2023/10/14 01:05:56;;;;;;;12.65;3.55;;;;;;;;;;514739;28;1270;-77
2023/10/14 01:06:51;;;;;;;12.10;3.80;;;;;;;;;;514236;28;909;-75
2023/10/14 01:07:14;;;;;;;11.65;3.85;;;;;;;;;;515900;28;919;-76
2023/10/14 01:07:30;;;;;;;10.60;3.60;;;;;;;;;;516861;28;1099;-77
2023/10/14 01:07:47;;;;;;;9.77;3.42;;;;;;;;;;514793;28;1268;-76
2023/10/14 01:08:08;;;;;;;9.40;3.55;;;;;;;;;;514351;28;1329;-76
2023/10/14 01:08:25;;;;;;;11.43;3.45;;;;;;;;;;515878;28;1243;-76
2023/10/14 01:08:43;;;;;;;12.55;3.55;;;;;;;;;;515825;28;1123;-76
2023/10/14 01:09:10;;;;;;;10.60;3.60;;;;;;;;;;515170;28;1383;-76
2023/10/14 01:10:01;;;;;;;8.70;3.53;;;;;;;;;;513220;28;899;-76
2023/10/14 01:10:11;;;;;;;11.15;3.70;;;;;;;;;;514594;28;1248;-77
2023/10/14 01:10:27;;;;;;;9.43;3.40;;;;;;;;;;518063;28;921;-76
2023/10/14 01:10:43;;;;;;;10.73;3.42;;;;;;;;;;515655;28;1356;-77
2023/10/14 01:10:58;;;;;;;9.30;3.57;;;;;;;;;;515373;28;815;-76
2023/10/14 01:11:16;;;;;;;10.25;3.70;;;;;;;;;;514204;28;1235;-76
2023/10/14 01:11:35;;;;;;;10.18;3.63;;;;;;;;;;515914;28;1312;-76
2023/10/14 01:11:50;;;;;;;8.70;3.58;;;;;;;;;;515666;28;1298;-76
2023/10/14 01:12:45;;;;;;;7.80;3.30;;;;;;;;;;517206;28;1187;-76
2023/10/14 01:13:06;;;;;;;8.55;3.50;;;;;;;;;;518732;28;1957;-76
2023/10/14 01:13:22;;;;;;;8.80;3.50;;;;;;;;;;521789;28;1266;-76
2023/10/14 01:13:37;;;;;;;8.65;3.40;;;;;;;;;;521973;28;1219;-76
2023/10/14 01:13:57;;;;;;;10.70;3.60;;;;;;;;;;519841;28;1147;-76
2023/10/14 01:14:17;;;;;;;8.98;3.78;;;;;;;;;;519687;28;1078;-76
2023/10/14 01:14:33;;;;;;;7.68;3.40;;;;;;;;;;519330;28;1233;-76
2023/10/14 01:14:53;;;;;;;8.43;3.33;;;;;;;;;;519644;28;1431;-77
2023/10/14 01:15:20;;;;;;;10.07;3.83;;;;;;;;;;519924;28;1273;-76
2023/10/14 01:15:42;;;;;;;11.15;3.40;;;;;;;;;;519944;28;917;-76
2023/10/14 01:16:03;;;;;;;8.77;3.30;;;;;;;;;;518660;28;1199;-76
2023/10/14 01:16:24;;;;;;;8.60;3.53;;;;;;;;;;519644;28;1291;-76
2023/10/14 01:16:41;;;;;;;10.80;3.50;;;;;;;;;;518321;28;1577;-76
2023/10/14 01:16:57;;;;;;;9.13;3.42;;;;;;;;;;517997;28;897;-75
2023/10/14 01:17:25;;;;;;;9.73;3.40;;;;;;;;;;517801;28;823;-76
2023/10/14 01:17:42;;;;;;;8.43;3.40;;;;;;;;;;516884;28;965;-76
2023/10/14 01:17:57;;;;;;;7.05;3.40;;;;;;;;;;517001;28;894;-75
2023/10/14 01:18:14;;;;;;;7.32;3.50;;;;;;;;;;517842;28;997;-76
2023/10/14 01:18:34;;;;;;;7.07;3.63;;;;;;;;;;517648;28;1702;-76
2023/10/14 01:18:49;;;;;;;9.02;3.47;;;;;;;;;;519196;28;1476;-76
2023/10/14 01:19:05;;;;;;;8.60;3.47;;;;;;;;;;519975;28;1797;-76
2023/10/14 01:19:22;;;;;;;7.80;3.40;;;;;;;;;;519668;28;1786;-76
2023/10/14 01:19:37;;;;;;;8.35;3.50;;;;;;;;;;520007;28;1877;-76
2023/10/14 01:19:54;;;;;;;11.88;3.50;;;;;;;;;;519991;28;1531;-76
2023/10/14 01:20:39;;;;;;;10.02;3.50;;;;;;;;;;519919;28;847;-76
2023/10/14 01:20:57;;;;;;;8.75;3.60;;;;;;;;;;519472;28;1321;-76
2023/10/14 01:21:13;;;;;;;7.75;3.60;;;;;;;;;;519844;28;823;-76
2023/10/14 01:21:29;;;;;;;7.60;3.50;;;;;;;;;;519960;28;910;-76
2023/10/14 01:21:49;;;;;;;8.43;3.53;;;;;;;;;;519718;28;1240;-77
2023/10/14 01:22:12;;;;;;;10.77;3.65;;;;;;;;;;520096;28;918;-76
2023/10/14 01:22:30;;;;;;;10.55;3.83;;;;;;;;;;520009;28;799;-76
2023/10/14 01:22:51;;;;;;;7.72;3.40;;;;;;;;;;517831;28;1374;-76
2023/10/14 01:23:07;;;;;;;8.27;3.20;;;;;;;;;;515940;28;1356;-76
2023/10/14 01:23:24;;;;;;;8.80;3.50;;;;;;;;;;515842;28;788;-76
2023/10/14 01:23:44;;;;;;;9.75;3.65;;;;;;;;;;513827;28;1500;-76
2023/10/14 01:23:59;;;;;;;11.70;3.70;;;;;;;;;;513839;28;889;-76
2023/10/14 01:24:17;;;;;;;10.02;3.70;;;;;;;;;;513928;28;796;-76
2023/10/14 01:24:39;;;;;;;9.60;3.63;;;;;;;;;;511931;28;994;-76
2023/10/14 01:24:57;;;;;;;10.95;3.63;;;;;;;;;;513783;28;1156;-76
2023/10/14 01:25:15;;;;;;;8.63;3.20;;;;;;;;;;515844;28;847;-76
2023/10/14 01:25:31;;;;;;;9.13;3.22;;;;;;;;;;516396;28;1375;-76
2023/10/14 01:25:47;;;;;;;10.15;3.33;;;;;;;;;;515318;28;1854;-76
2023/10/14 01:26:05;;;;;;;9.93;3.28;;;;;;;;;;514576;28;1379;-76
2023/10/14 01:26:20;;;;;;;10.15;3.50;;;;;;;;;;513860;28;875;-76
2023/10/14 01:26:36;;;;;;;9.00;3.35;;;;;;;;;;515984;28;975;-76
2023/10/14 01:27:00;;;;;;;12.00;3.22;;;;;;;;;;517738;28;1405;-77
2023/10/14 01:27:16;;;;;;;11.27;3.42;;;;;;;;;;517933;28;842;-76
2023/10/14 01:27:35;;;;;;;9.35;3.33;;;;;;;;;;518011;28;1395;-76
2023/10/14 01:27:51;;;;;;;12.40;3.58;;;;;;;;;;518297;28;1111;-76
2023/10/14 01:28:11;;;;;;;11.73;3.58;;;;;;;;;;515776;28;1359;-76
2023/10/14 01:28:30;;;;;;;10.75;3.55;;;;;;;;;;513796;28;1252;-76
2023/10/14 01:28:53;;;;;;;9.98;3.35;;;;;;;;;;514287;28;1066;-76
2023/10/14 01:29:14;;;;;;;8.70;3.38;;;;;;;;;;515849;28;843;-75
2023/10/14 01:29:39;;;;;;;8.32;3.33;;;;;;;;;;517408;28;847;-76
2023/10/14 01:29:54;;;;;;;9.47;3.40;;;;;;;;;;517807;28;1274;-76
2023/10/14 01:30:13;;;;;;;9.77;3.20;;;;;;;;;;517795;28;1258;-76
2023/10/14 01:30:32;;;;;;;10.07;3.20;;;;;;;;;;517855;28;867;-76
2023/10/14 01:30:55;;;;;;;9.88;3.30;;;;;;;;;;515651;28;1327;-76
2023/10/14 01:31:50;;;;;;;9.68;3.28;;;;;;;;;;515518;28;965;-76
2023/10/14 01:32:25;;;;;;;10.50;3.33;;;;;;;;;;514992;28;1694;-76
2023/10/14 01:33:16;;;;;;;8.15;2.80;;;;;;;;;;514834;28;1898;-76
2023/10/14 01:33:35;;;;;;;6.18;2.78;;;;;;;;;;512586;28;1320;-76
2023/10/14 01:33:51;;;;;;;9.63;3.10;;;;;;;;;;513557;28;2018;-77
2023/10/14 01:34:07;;;;;;;9.33;3.10;;;;;;;;;;514324;28;2346;-76
2023/10/14 01:34:28;;;;;;;9.65;3.05;;;;;;;;;;515887;28;2334;-76
2023/10/14 01:34:44;;;;;;;8.27;2.78;;;;;;;;;;515608;28;1504;-76
2023/10/14 01:35:00;;;;;;;7.50;2.80;;;;;;;;;;515906;28;854;-76
2023/10/14 01:35:45;;;;;;;6.60;2.60;;;;;;;;;;517778;28;1062;-76
2023/10/14 01:36:00;;;;;;;5.85;2.50;;;;;;;;;;516881;28;2318;-76
2023/10/14 01:36:16;;;;;;;7.50;2.70;;;;;;;;;;517796;28;1806;-76
2023/10/14 01:36:37;;;;;;;6.27;2.70;;;;;;;;;;518001;28;1810;-76
2023/10/14 01:36:53;;;;;;;10.52;2.83;;;;;;;;;;519716;28;1052;-76
2023/10/14 01:37:15;;;;;;;11.53;2.77;;;;;;;;;;517497;28;1175;-76
2023/10/14 01:37:36;;;;;;;6.75;2.58;;;;;;;;;;517381;28;1404;-76
2023/10/14 01:37:53;;;;;;;7.10;2.50;;;;;;;;;;517065;28;1139;-76
2023/10/14 01:38:08;;;;;;;7.50;2.50;;;;;;;;;;516894;28;1311;-86
2023/10/14 01:38:24;;;;;;;7.03;2.43;;;;;;;;;;518062;28;1257;-86
2023/10/14 01:38:39;;;;;;;5.53;2.15;;;;;;;;;;517957;28;1165;-86
2023/10/14 01:38:58;;;;;;;5.37;2.27;;;;;;;;;;515791;28;1373;-86
2023/10/14 01:39:21;;;;;;;7.63;2.80;;;;;;;;;;516024;28;859;-87
2023/10/14 01:39:46;;;;;;;9.07;2.72;;;;;;;;;;514012;28;1404;-87
2023/10/14 01:40:17;;;;;;;7.40;2.50;;;;;;;;;;515012;28;974;-87
2023/10/14 01:40:39;;;;;;;8.00;2.63;;;;;;;;;;515214;28;1775;-87
2023/10/14 01:40:54;;;;;;;6.88;2.50;;;;;;;;;;515717;28;1021;-87
2023/10/14 01:41:10;;;;;;;6.37;2.50;;;;;;;;;;515563;28;1169;-88
2023/10/14 01:41:30;;;;;;;6.45;2.60;;;;;;;;;;514251;28;1277;-86
2023/10/14 01:41:45;;;;;;;6.20;2.60;;;;;;;;;;516707;28;1401;-87
2023/10/14 01:42:01;;;;;;;8.87;2.50;;;;;;;;;;516207;28;1209;-86
2023/10/14 01:42:17;;;;;;;10.05;2.60;;;;;;;;;;516058;28;1248;-86
2023/10/14 01:42:32;;;;;;;9.05;2.70;;;;;;;;;;513969;28;1228;-87
2023/10/14 01:42:48;;;;;;;7.97;2.57;;;;;;;;;;513922;28;1168;-87
2023/10/14 01:43:08;;;;;;;7.95;2.40;;;;;;;;;;516044;28;1265;-87
2023/10/14 01:43:30;;;;;;;8.57;2.40;;;;;;;;;;513790;28;1541;-87
2023/10/14 01:43:45;;;;;;;5.88;2.40;;;;;;;;;;513748;28;1304;-86
2023/10/14 01:44:05;;;;;;;5.83;2.33;;;;;;;;;;516031;28;1199;-88
2023/10/14 01:44:21;;;;;;;6.05;2.33;;;;;;;;;;517807;28;1300;-87
2023/10/14 01:44:37;;;;;;;6.55;2.30;;;;;;;;;;514215;28;1272;-87
2023/10/14 01:44:53;;;;;;;6.53;2.22;;;;;;;;;;513705;28;1230;-88
2023/10/14 01:45:08;;;;;;;7.45;2.47;;;;;;;;;;511824;29;1343;-88
2023/10/14 01:45:31;;;;;;;6.60;2.40;;;;;;;;;;513350;28;1350;-85
2023/10/14 01:45:59;;;;;;;4.57;2.05;;;;;;;;;;510059;29;1294;-86
2023/10/14 01:46:18;;;;;;;8.80;2.47;;;;;;;;;;515931;28;1293;-86
2023/10/14 01:46:39;;;;;;;7.65;2.40;;;;;;;;;;517842;28;1349;-88
2023/10/14 01:46:55;;;;;;;5.28;2.20;;;;;;;;;;518052;28;1426;-88
2023/10/14 01:47:11;;;;;;;6.90;2.38;;;;;;;;;;518261;28;1230;-87
2023/10/14 01:47:32;;;;;;;7.28;2.40;;;;;;;;;;516070;28;1433;-87
2023/10/14 01:48:06;;;;;;;7.80;2.30;;;;;;;;;;515948;28;1101;-86
2023/10/14 01:48:25;;;;;;;6.30;2.10;;;;;;;;;;516063;28;899;-86
2023/10/14 01:48:44;;;;;;;6.85;2.20;;;;;;;;;;517800;28;1112;-87
2023/10/14 01:49:09;;;;;;;7.78;2.28;;;;;;;;;;515906;28;1386;-87
2023/10/14 01:49:27;;;;;;;6.82;2.13;;;;;;;;;;515524;28;1308;-88
2023/10/14 01:49:42;;;;;;;6.20;2.10;;;;;;;;;;515572;28;1399;-88
2023/10/14 01:49:59;;;;;;;5.23;2.00;;;;;;;;;;515149;28;1882;-88
2023/10/14 01:50:15;;;;;;;5.97;2.00;;;;;;;;;;513954;28;1295;-87
2023/10/14 01:50:30;;;;;;;7.00;2.13;;;;;;;;;;513654;28;1197;-87
2023/10/14 01:50:49;;;;;;;6.20;2.25;;;;;;;;;;515091;28;1201;-86
2023/10/14 01:51:04;;;;;;;5.47;2.10;;;;;;;;;;513373;28;1333;-87
2023/10/14 01:51:20;;;;;;;5.03;2.07;;;;;;;;;;512010;28;1071;-88
2023/10/14 01:51:36;;;;;;;7.20;2.13;;;;;;;;;;512047;29;1242;-87
2023/10/14 01:51:52;;;;;;;7.47;2.47;;;;;;;;;;511711;29;1120;-85
2023/10/14 01:52:14;;;;;;;7.90;2.60;;;;;;;;;;515970;28;1215;-85
2023/10/14 01:52:31;;;;;;;6.47;2.05;;;;;;;;;;516145;28;1249;-86
2023/10/14 01:52:47;;;;;;;6.13;2.25;;;;;;;;;;515894;28;1399;-85
2023/10/14 01:53:10;;;;;;;7.00;2.40;;;;;;;;;;515950;28;1934;-85
2023/10/14 01:53:27;;;;;;;10.77;2.10;;;;;;;;;;514917;28;2255;-86
2023/10/14 01:53:43;;;;;;;5.40;1.80;;;;;;;;;;512090;28;1893;-86
2023/10/14 01:53:58;;;;;;;5.70;1.80;;;;;;;;;;514453;28;994;-87
2023/10/14 01:54:13;;;;;;;6.00;1.90;;;;;;;;;;514024;28;1878;-85
2023/10/14 01:54:29;;;;;;;4.50;2.00;;;;;;;;;;515616;28;1344;-86
2023/10/14 01:54:44;;;;;;;4.67;1.90;;;;;;;;;;514006;28;1246;-88
2023/10/14 01:55:00;;;;;;;6.40;1.90;;;;;;;;;;515449;28;1229;-86
2023/10/14 01:55:19;;;;;;;8.00;1.90;;;;;;;;;;515961;28;1441;-86
2023/10/14 01:55:35;;;;;;;6.25;1.98;;;;;;;;;;515938;28;803;-88
2023/10/14 01:55:53;;;;;;;5.63;1.92;;;;;;;;;;514374;28;1053;-87
2023/10/14 01:56:08;;;;;;;7.82;2.00;;;;;;;;;;511532;28;1272;-85
2023/10/14 01:56:24;;;;;;;8.40;1.90;;;;;;;;;;511829;29;1334;-86
2023/10/14 01:56:43;;;;;;;4.95;1.80;;;;;;;;;;513222;28;1077;-87
2023/10/14 01:56:59;;;;;;;5.07;1.90;;;;;;;;;;513976;28;1061;-88
2023/10/14 01:57:17;;;;;;;6.40;2.13;;;;;;;;;;514087;28;886;-87
2023/10/14 01:57:33;;;;;;;5.78;2.30;;;;;;;;;;516080;28;1371;-89
2023/10/14 01:57:48;;;;;;;4.60;2.13;;;;;;;;;;516057;28;1184;-86
2023/10/14 01:58:08;;;;;;;5.87;2.20;;;;;;;;;;517038;28;760;-87
2023/10/14 01:58:30;;;;;;;7.03;2.22;;;;;;;;;;517953;28;1315;-86
2023/10/14 01:58:47;;;;;;;7.80;2.30;;;;;;;;;;517931;28;1077;-86